Fort Dodge Regional Airport


Codes: KFOD/FOD
Name: Fort Dodge Regional Airport
City: Fort Dodge
Country: United States
Elevation: 1156 ft.
Wikipedia:

Photos at Fort Dodge Regional Airport


   Photos courtesy of SpottingLog. You can add your own sightings and photos by signing up for a free trial today.



No photos found.

Weather at Fort Dodge Regional Airport


Time (UTC)DescriptionTempratureWindCloud coverageVisibilityPressureHumidity
25-Jun-2024 15:00Few Clouds27°C9 mph, E17%10000m1006hPa87%
25-Jun-2024 18:00Few Clouds29°C7 mph, NE17%10000m1007hPa74%
25-Jun-2024 21:00Scattered Clouds31°C9 mph, NE40%10000m1007hPa59%
26-Jun-2024 00:00Light Rain28°C9 mph, NE62%10000m1007hPa78%
26-Jun-2024 03:00Moderate Rain22°C11 mph, N83%10000m1009hPa91%
26-Jun-2024 06:00Light Rain20°C7 mph, NE62%10000m1011hPa92%
26-Jun-2024 09:00Clear Sky19°C7 mph, N2%10000m1010hPa93%
26-Jun-2024 12:00Clear Sky18°C11 mph, N1%10000m1014hPa87%
26-Jun-2024 15:00Clear Sky22°C11 mph, N0%10000m1015hPa65%
26-Jun-2024 18:00Clear Sky23°C11 mph, N1%10000m1015hPa62%
26-Jun-2024 21:00Clear Sky24°C11 mph, N0%10000m1015hPa59%
27-Jun-2024 00:00Clear Sky23°C9 mph, N0%10000m1014hPa72%
27-Jun-2024 03:00Clear Sky18°C4 mph, N2%10000m1015hPa86%
27-Jun-2024 06:00Few Clouds16°C4 mph, NE16%10000m1016hPa92%
27-Jun-2024 09:00Broken Clouds15°C4 mph, SE74%10000m1016hPa95%
27-Jun-2024 12:00Overcast Clouds16°C7 mph, SE87%10000m1015hPa91%
27-Jun-2024 15:00Overcast Clouds20°C9 mph, S99%10000m1014hPa77%
27-Jun-2024 18:00Overcast Clouds21°C9 mph, SE99%10000m1013hPa73%
27-Jun-2024 21:00Overcast Clouds19°C9 mph, SE100%10000m1011hPa86%
28-Jun-2024 00:00Overcast Clouds19°C11 mph, SE100%10000m1009hPa83%
28-Jun-2024 03:00Overcast Clouds20°C13 mph, SE100%10000m1007hPa77%
28-Jun-2024 06:00Overcast Clouds19°C13 mph, S100%10000m1006hPa84%
28-Jun-2024 09:00Light Rain19°C16 mph, S98%10000m1003hPa92%
28-Jun-2024 12:00Light Rain19°C13 mph, S99%7975m1002hPa98%
28-Jun-2024 15:00Light Rain20°C13 mph, N100%0m1001hPa97%
28-Jun-2024 18:00Overcast Clouds24°C9 mph, SW100%10000m1001hPa93%
28-Jun-2024 21:00Light Rain26°C11 mph, W88%10000m1001hPa81%
29-Jun-2024 00:00Light Rain25°C9 mph, W85%10000m1002hPa87%
29-Jun-2024 03:00Light Rain23°C13 mph, NW80%10000m1005hPa90%
29-Jun-2024 06:00Broken Clouds19°C7 mph, NW83%10000m1008hPa92%
29-Jun-2024 09:00Scattered Clouds17°C9 mph, NW28%10000m1010hPa92%
29-Jun-2024 12:00Few Clouds16°C11 mph, NW14%10000m1013hPa87%
29-Jun-2024 15:00Clear Sky18°C16 mph, NW0%10000m1017hPa75%
29-Jun-2024 18:00Few Clouds18°C18 mph, NW16%10000m1019hPa67%
29-Jun-2024 21:00Clear Sky19°C16 mph, N5%10000m1020hPa64%
30-Jun-2024 00:00Few Clouds17°C13 mph, N11%10000m1022hPa76%
30-Jun-2024 03:00Broken Clouds13°C7 mph, N75%10000m1024hPa85%
30-Jun-2024 06:00Scattered Clouds11°C4 mph, NE38%10000m1027hPa95%
30-Jun-2024 09:00Clear Sky10°C4 mph, NE7%10000m1027hPa93%
30-Jun-2024 12:00Clear Sky10°C4 mph, E3%10000m1028hPa90%